createdAt,value
2016-02-07T00:00:44.514Z,0
2016-02-07T00:01:44.502Z,0
2016-02-07T00:02:44.521Z,0
2016-02-07T00:03:44.492Z,0
2016-02-07T00:04:44.479Z,0
2016-02-07T00:05:44.498Z,0
2016-02-07T00:06:44.500Z,0
2016-02-07T00:07:44.471Z,0
2016-02-07T00:08:44.476Z,0
2016-02-07T00:09:44.463Z,0
2016-02-07T00:10:44.497Z,0
2016-02-07T00:11:44.437Z,0
2016-02-07T00:12:44.440Z,0
2016-02-07T00:13:44.459Z,0
2016-02-07T00:14:44.492Z,0
2016-02-07T00:15:44.464Z,0
2016-02-07T00:16:44.281Z,0
2016-02-07T00:17:44.424Z,0
2016-02-07T00:18:44.426Z,0
2016-02-07T00:19:44.429Z,0
2016-02-07T00:20:44.401Z,0
2016-02-07T00:21:44.405Z,0
2016-02-07T00:22:44.408Z,0
2016-02-07T00:23:44.411Z,0
2016-02-07T00:24:44.384Z,0
2016-02-07T00:25:44.387Z,0
2016-02-07T00:26:44.391Z,0
2016-02-07T00:27:44.393Z,0
2016-02-07T00:28:44.364Z,0
2016-02-07T00:29:44.368Z,0
2016-02-07T00:30:44.391Z,0
2016-02-07T00:31:44.363Z,0
2016-02-07T00:32:44.381Z,0
2016-02-07T00:33:44.353Z,0
2016-02-07T00:34:44.373Z,0
2016-02-07T00:35:44.344Z,0
2016-02-07T00:36:44.332Z,0
2016-02-07T00:37:44.335Z,0
2016-02-07T00:38:44.352Z,0
2016-02-07T00:39:44.324Z,0
2016-02-07T00:40:44.313Z,0
2016-02-07T00:41:44.315Z,0
2016-02-07T00:42:44.335Z,0
2016-02-07T00:43:44.308Z,0
2016-02-07T00:44:44.310Z,0
2016-02-07T00:45:44.172Z,0
2016-02-07T00:46:44.316Z,0
2016-02-07T00:47:44.302Z,0
2016-02-07T00:48:44.274Z,0
2016-02-07T00:49:44.277Z,0
2016-02-07T00:50:44.263Z,0
2016-02-07T00:51:44.296Z,0
2016-02-07T00:52:44.269Z,0
2016-02-07T00:53:44.260Z,0
2016-02-07T00:54:44.248Z,0
2016-02-07T00:55:44.265Z,0
2016-02-07T00:56:44.300Z,0
2016-02-07T00:57:44.240Z,0
2016-02-07T00:58:44.227Z,0
2016-02-07T00:59:44.230Z,0
2016-02-07T01:00:44.248Z,0
2016-02-07T01:01:44.220Z,0
2016-02-07T01:02:44.223Z,0
2016-02-07T01:03:44.257Z,0
2016-02-07T01:04:44.213Z,0
2016-02-07T01:05:44.201Z,0
2016-02-07T01:06:44.235Z,0
2016-02-07T01:07:44.190Z,0
2016-02-07T01:08:44.197Z,0
2016-02-07T01:09:44.199Z,0
2016-02-07T01:10:44.202Z,0
2016-02-07T01:11:44.174Z,0
2016-02-07T01:12:44.177Z,0
2016-02-07T01:13:44.180Z,0
2016-02-07T01:14:44.025Z,0
2016-02-07T01:15:44.153Z,0
2016-02-07T01:16:44.142Z,0
2016-02-07T01:17:44.160Z,0
2016-02-07T01:18:44.163Z,0
2016-02-07T01:19:44.134Z,0
2016-02-07T01:20:44.137Z,0
2016-02-07T01:21:44.125Z,0
2016-02-07T01:22:44.159Z,0
2016-02-07T01:23:44.115Z,0
2016-02-07T01:24:44.102Z,0
2016-02-07T01:25:44.136Z,0
2016-02-07T01:26:44.107Z,0
2016-02-07T01:27:44.095Z,0
2016-02-07T01:28:44.097Z,0
2016-02-07T01:29:44.102Z,0
2016-02-07T01:30:44.104Z,0
2016-02-07T01:31:44.075Z,0
2016-02-07T01:32:44.077Z,0
2016-02-07T01:33:44.096Z,0
2016-02-07T01:34:44.067Z,0
2016-02-07T01:35:44.071Z,0
2016-02-07T01:36:44.057Z,0
2016-02-07T01:37:44.064Z,0
2016-02-07T01:38:44.066Z,0
2016-02-07T01:39:44.053Z,0
2016-02-07T01:40:44.041Z,0
2016-02-07T01:41:44.028Z,0
2016-02-07T01:42:44.030Z,0
2016-02-07T01:43:44.049Z,0
2016-02-07T01:44:44.035Z,0
2016-02-07T01:45:44.023Z,0
2016-02-07T01:46:44.010Z,0
2016-02-07T01:47:44.012Z,0
2016-02-07T01:48:44.031Z,0
2016-02-07T01:49:44.002Z,0
2016-02-07T01:50:43.991Z,0
2016-02-07T01:51:43.993Z,0
2016-02-07T01:52:44.011Z,0
2016-02-07T01:53:43.983Z,0
2016-02-07T01:54:43.970Z,0
2016-02-07T01:55:43.959Z,0
2016-02-07T01:56:43.977Z,0
2016-02-07T01:57:43.964Z,0
2016-02-07T01:58:43.952Z,0
2016-02-07T01:59:43.955Z,0
2016-02-07T02:00:43.989Z,0
2016-02-07T02:01:43.944Z,0
2016-02-07T02:02:43.979Z,0
2016-02-07T02:03:43.928Z,0
2016-02-07T02:04:43.901Z,0
2016-02-07T02:05:43.889Z,0
2016-02-07T02:06:43.892Z,0
2016-02-07T02:07:43.864Z,0
2016-02-07T02:08:43.826Z,0
2016-02-07T02:09:43.824Z,0
2016-02-07T02:10:43.821Z,0
2016-02-07T02:11:43.802Z,0
2016-02-07T02:12:43.799Z,0
2016-02-07T02:13:43.798Z,0
2016-02-07T02:14:43.816Z,0
2016-02-07T02:15:43.769Z,0
2016-02-07T02:16:43.770Z,0
2016-02-07T02:17:43.771Z,0
2016-02-07T02:18:43.788Z,0
2016-02-07T02:19:43.758Z,0
2016-02-07T02:20:43.745Z,0
2016-02-07T02:21:43.733Z,0
2016-02-07T02:22:43.751Z,0
2016-02-07T02:23:43.754Z,0
2016-02-07T02:24:43.712Z,0
2016-02-07T02:25:43.714Z,0
2016-02-07T02:26:43.827Z,0
2016-02-07T02:27:43.397Z,0
2016-02-07T02:28:43.717Z,0
2016-02-07T02:29:43.768Z,0
2016-02-07T02:30:44.129Z,0
2016-02-07T02:31:43.695Z,0
2016-02-07T02:32:43.697Z,0
2016-02-07T02:33:43.701Z,0
2016-02-07T02:34:43.671Z,0
2016-02-07T02:35:43.659Z,0
2016-02-07T02:36:43.676Z,0
2016-02-07T02:37:43.648Z,0
2016-02-07T02:38:43.651Z,0
2016-02-07T02:39:43.670Z,0
2016-02-07T02:40:43.672Z,0
2016-02-07T02:41:43.643Z,0
2016-02-07T02:42:43.630Z,0
2016-02-07T02:43:43.639Z,0
2016-02-07T02:44:43.656Z,0
2016-02-07T02:45:43.613Z,0
2016-02-07T02:46:43.615Z,0
2016-02-07T02:47:43.618Z,0
2016-02-07T02:48:43.637Z,0
2016-02-07T02:49:43.593Z,0
2016-02-07T02:50:43.596Z,0
2016-02-07T02:51:43.599Z,0
2016-02-07T02:52:43.645Z,0
2016-02-07T02:53:43.586Z,0
2016-02-07T02:54:43.588Z,0
2016-02-07T02:55:43.591Z,0
2016-02-07T02:56:43.593Z,0
2016-02-07T02:57:43.548Z,0
2016-02-07T02:58:43.554Z,0
2016-02-07T02:59:43.571Z,0
2016-02-07T03:00:43.574Z,0
2016-02-07T03:01:43.576Z,0
2016-02-07T03:02:43.580Z,0
2016-02-07T03:03:43.535Z,0
2016-02-07T03:04:43.544Z,0
2016-02-07T03:05:43.531Z,0
2016-02-07T03:06:43.518Z,0
2016-02-07T03:07:43.504Z,0
2016-02-07T03:08:43.540Z,0
2016-02-07T03:09:43.510Z,0
2016-02-07T03:10:43.498Z,0
2016-02-07T03:11:43.487Z,0
2016-02-07T03:12:43.490Z,0
2016-02-07T03:13:43.493Z,0
2016-02-07T03:14:43.465Z,0
2016-02-07T03:15:43.467Z,0
2016-02-07T03:16:43.486Z,0
2016-02-07T03:17:43.488Z,0
2016-02-07T03:18:43.460Z,0
2016-02-07T03:19:43.448Z,0
2016-02-07T03:20:43.451Z,0
2016-02-07T03:21:43.456Z,0
2016-02-07T03:22:43.443Z,0
2016-02-07T03:23:43.430Z,0
2016-02-07T03:24:43.432Z,0
2016-02-07T03:25:43.451Z,0
2016-02-07T03:26:43.438Z,0
2016-02-07T03:27:43.409Z,0
2016-02-07T03:28:43.412Z,0
2016-02-07T03:29:43.415Z,0
2016-02-07T03:30:43.417Z,0
2016-02-07T03:31:43.264Z,0
2016-02-07T03:32:43.395Z,0
2016-02-07T03:33:43.226Z,0
2016-02-07T03:34:43.384Z,0
2016-02-07T03:35:43.403Z,0
2016-02-07T03:36:43.373Z,0
2016-02-07T03:37:43.377Z,0
2016-02-07T03:38:43.379Z,0
2016-02-07T03:39:43.382Z,0
2016-02-07T03:40:43.354Z,0
2016-02-07T03:41:43.342Z,0
2016-02-07T03:42:43.360Z,0
2016-02-07T03:43:43.379Z,0
2016-02-07T03:44:43.334Z,0
2016-02-07T03:45:43.321Z,0
2016-02-07T03:46:43.324Z,0
2016-02-07T03:47:43.344Z,0
2016-02-07T03:48:43.346Z,0
2016-02-07T03:49:43.304Z,0
2016-02-07T03:50:43.306Z,0
2016-02-07T03:51:43.309Z,0
2016-02-07T03:52:43.328Z,0
2016-02-07T03:53:43.298Z,0
2016-02-07T03:54:43.301Z,0
2016-02-07T03:55:43.289Z,0
2016-02-07T03:56:43.275Z,0
2016-02-07T03:57:43.278Z,0
2016-02-07T03:58:43.266Z,0
2016-02-07T03:59:43.284Z,0
2016-02-07T04:00:43.256Z,0
2016-02-07T04:01:43.262Z,0
2016-02-07T04:02:43.264Z,0
2016-02-07T04:03:43.250Z,0
2016-02-07T04:04:43.284Z,0
2016-02-07T04:05:43.240Z,0
2016-02-07T04:06:43.244Z,0
2016-02-07T04:07:43.231Z,0
2016-02-07T04:08:43.233Z,0
2016-02-07T04:09:43.219Z,0
2016-02-07T04:10:43.222Z,0
2016-02-07T04:11:43.241Z,0
2016-02-07T04:12:43.260Z,0
2016-02-07T04:13:43.199Z,0
2016-02-07T04:14:43.202Z,0
2016-02-07T04:15:43.204Z,0
2016-02-07T04:16:43.192Z,0
2016-02-07T04:17:43.178Z,0
2016-02-07T04:18:43.165Z,0
2016-02-07T04:19:43.168Z,0
2016-02-07T04:20:43.187Z,0
2016-02-07T04:21:43.159Z,0
2016-02-07T04:22:43.146Z,0
2016-02-07T04:23:43.148Z,0
2016-02-07T04:24:43.167Z,0
2016-02-07T04:25:43.137Z,0
2016-02-07T04:26:43.141Z,0
2016-02-07T04:27:43.143Z,0
2016-02-07T04:28:43.146Z,0
2016-02-07T04:29:43.101Z,0
2016-02-07T04:30:43.120Z,0
2016-02-07T04:31:43.107Z,0
2016-02-07T04:32:43.094Z,0
2016-02-07T04:33:43.097Z,0
2016-02-07T04:34:43.100Z,0
2016-02-07T04:35:43.102Z,0
2016-02-07T04:36:43.095Z,0
2016-02-07T04:37:43.113Z,0
2016-02-07T04:38:43.083Z,0
2016-02-07T04:39:43.071Z,0
2016-02-07T04:40:43.074Z,0
2016-02-07T04:41:43.083Z,0
2016-02-07T04:42:43.086Z,0
2016-02-07T04:43:43.056Z,0
2016-02-07T04:44:43.059Z,0
2016-02-07T04:45:43.062Z,0
2016-02-07T04:46:43.039Z,0
2016-02-07T04:47:43.042Z,0
2016-02-07T04:48:43.044Z,0
2016-02-07T04:49:43.031Z,0
2016-02-07T04:50:43.019Z,0
2016-02-07T04:51:43.022Z,0
2016-02-07T04:52:43.039Z,0
2016-02-07T04:53:43.011Z,0
2016-02-07T04:54:42.998Z,0
2016-02-07T04:55:43.016Z,0
2016-02-07T04:56:43.022Z,0
2016-02-07T04:57:42.994Z,0
2016-02-07T04:58:42.980Z,0
2016-02-07T04:59:42.999Z,0
2016-02-07T05:00:43.002Z,0
2016-02-07T05:01:42.973Z,0
2016-02-07T05:02:42.961Z,0
2016-02-07T05:03:42.980Z,0
2016-02-07T05:04:42.966Z,0
2016-02-07T05:05:42.953Z,0
2016-02-07T05:06:42.941Z,0
2016-02-07T05:07:42.959Z,0
2016-02-07T05:08:42.947Z,0
2016-02-07T05:09:42.934Z,0
2016-02-07T05:10:42.922Z,0
2016-02-07T05:11:42.941Z,0
2016-02-07T05:12:42.927Z,0
2016-02-07T05:13:42.929Z,0
2016-02-07T05:14:42.917Z,0
2016-02-07T05:15:42.938Z,0
2016-02-07T05:16:42.934Z,0
2016-02-07T05:17:42.890Z,0
2016-02-07T05:18:42.893Z,0
2016-02-07T05:19:42.880Z,0
2016-02-07T05:20:42.883Z,0
2016-02-07T05:21:42.885Z,0
2016-02-07T05:22:42.888Z,0
2016-02-07T05:23:42.860Z,0
2016-02-07T05:24:42.864Z,0
2016-02-07T05:25:42.866Z,0
2016-02-07T05:26:42.869Z,0
2016-02-07T05:27:42.855Z,0
2016-02-07T05:28:42.842Z,0
2016-02-07T05:29:42.844Z,0
2016-02-07T05:30:42.833Z,0
2016-02-07T05:31:42.835Z,0
2016-02-07T05:32:42.838Z,0
2016-02-07T05:33:42.856Z,0
2016-02-07T05:34:42.812Z,0
2016-02-07T05:35:42.815Z,0
2016-02-07T05:36:42.819Z,0
2016-02-07T05:37:42.805Z,0
2016-02-07T05:38:42.792Z,0
2016-02-07T05:39:42.794Z,0
2016-02-07T05:40:42.797Z,0
2016-02-07T05:41:42.790Z,0
2016-02-07T05:42:42.776Z,0
2016-02-07T05:43:42.763Z,0
2016-02-07T05:44:42.784Z,0
2016-02-07T05:45:42.817Z,0
2016-02-07T05:46:42.773Z,0
2016-02-07T05:47:42.745Z,0
2016-02-07T05:48:42.606Z,0
2016-02-07T05:49:42.769Z,0
2016-02-07T05:50:42.787Z,0
2016-02-07T05:51:42.742Z,0
2016-02-07T05:52:42.729Z,0
2016-02-07T05:53:42.748Z,0
2016-02-07T05:54:42.750Z,0
2016-02-07T05:55:42.722Z,0
2016-02-07T05:56:42.724Z,0
2016-02-07T05:57:42.712Z,0
2016-02-07T05:58:42.731Z,0
2016-02-07T05:59:42.703Z,0
2016-02-07T06:00:42.689Z,0
2016-02-07T06:01:42.692Z,0
2016-02-07T06:02:42.680Z,0
2016-02-07T06:03:42.699Z,0
2016-02-07T06:04:42.701Z,0
2016-02-07T06:05:42.673Z,0
2016-02-07T06:06:42.664Z,0
2016-02-07T06:07:42.667Z,0
2016-02-07T06:08:42.686Z,0
2016-02-07T06:09:42.642Z,0
2016-02-07T06:10:42.648Z,0
2016-02-07T06:11:42.651Z,0
2016-02-07T06:12:42.668Z,0
2016-02-07T06:13:42.625Z,0
2016-02-07T06:14:42.629Z,0
2016-02-07T06:15:42.632Z,0
2016-02-07T06:16:42.634Z,0
2016-02-07T06:17:42.605Z,0
2016-02-07T06:18:42.607Z,0
2016-02-07T06:19:42.626Z,0
2016-02-07T06:20:42.613Z,4
2016-02-07T06:21:42.601Z,4
2016-02-07T06:22:42.603Z,4
2016-02-07T06:23:42.621Z,4
2016-02-07T06:24:42.577Z,4
2016-02-07T06:25:42.579Z,4
2016-02-07T06:26:42.582Z,8
2016-02-07T06:27:42.585Z,8
2016-02-07T06:28:42.557Z,8
2016-02-07T06:29:42.559Z,12
2016-02-07T06:30:42.547Z,16
2016-02-07T06:31:42.565Z,16
2016-02-07T06:32:42.553Z,20
2016-02-07T06:33:42.571Z,24
2016-02-07T06:34:42.527Z,24
2016-02-07T06:35:42.529Z,28
2016-02-07T06:36:42.534Z,32
2016-02-07T06:37:42.833Z,32
2016-02-07T06:38:42.539Z,32
2016-02-07T06:39:42.511Z,36
2016-02-07T06:40:42.514Z,40
2016-02-07T06:41:42.500Z,44
2016-02-07T06:42:42.519Z,44
2016-02-07T06:43:42.507Z,48
2016-02-07T06:44:42.496Z,52
2016-02-07T06:45:42.498Z,56
2016-02-07T06:46:42.501Z,60
2016-02-07T06:47:42.487Z,68
2016-02-07T06:48:42.474Z,72
2016-02-07T06:49:42.463Z,76
2016-02-07T06:50:42.481Z,88
2016-02-07T06:51:42.483Z,96
2016-02-07T06:52:42.472Z,108
2016-02-07T06:53:42.444Z,116
2016-02-07T06:54:42.446Z,132
2016-02-07T06:55:42.464Z,144
2016-02-07T06:56:42.436Z,156
2016-02-07T06:57:42.455Z,168
2016-02-07T06:58:42.442Z,172
2016-02-07T06:59:42.445Z,184
2016-02-07T07:00:42.416Z,196
2016-02-07T07:01:42.403Z,204
2016-02-07T07:02:42.406Z,212
2016-02-07T07:03:42.409Z,220
2016-02-07T07:04:42.416Z,228
2016-02-07T07:05:42.389Z,228
2016-02-07T07:06:42.392Z,228
2016-02-07T07:07:42.395Z,228
2016-02-07T07:08:42.397Z,228
2016-02-07T07:09:42.368Z,228
2016-02-07T07:10:42.372Z,232
2016-02-07T07:11:42.391Z,240
2016-02-07T07:12:42.362Z,252
2016-02-07T07:13:42.365Z,264
2016-02-07T07:14:42.367Z,280
2016-02-07T07:15:42.376Z,292
2016-02-07T07:16:42.346Z,304
2016-02-07T07:17:42.334Z,316
2016-02-07T07:18:42.355Z,332
2016-02-07T07:19:42.358Z,356
2016-02-07T07:20:42.626Z,368
2016-02-07T07:21:42.316Z,380
2016-02-07T07:22:42.334Z,384
2016-02-07T07:23:42.306Z,388
2016-02-07T07:24:42.313Z,388
2016-02-07T07:25:42.316Z,392
2016-02-07T07:26:42.303Z,396
2016-02-07T07:27:42.291Z,400
2016-02-07T07:28:42.292Z,396
2016-02-07T07:29:42.312Z,392
2016-02-07T07:30:42.283Z,384
2016-02-07T07:31:42.270Z,384
2016-02-07T07:32:42.261Z,388
2016-02-07T07:33:42.264Z,404
2016-02-07T07:34:42.298Z,424
2016-02-07T07:35:42.128Z,444
2016-02-07T07:36:42.257Z,460
2016-02-07T07:37:42.259Z,468
2016-02-07T07:38:42.246Z,468
2016-02-07T07:39:42.266Z,464
2016-02-07T07:40:42.237Z,468
2016-02-07T07:41:42.240Z,480
2016-02-07T07:42:42.243Z,496
2016-02-07T07:43:42.213Z,512
2016-02-07T07:44:42.216Z,532
2016-02-07T07:45:42.209Z,548
2016-02-07T07:46:42.228Z,564
2016-02-07T07:47:42.206Z,584
2016-02-07T07:48:42.209Z,604
2016-02-07T07:49:42.212Z,624
2016-02-07T07:50:42.198Z,644
2016-02-07T07:51:42.185Z,652
2016-02-07T07:52:42.204Z,664
2016-02-07T07:53:42.207Z,672
2016-02-07T07:54:42.179Z,676
2016-02-07T07:55:42.165Z,684
2016-02-07T07:56:42.169Z,700
2016-02-07T07:57:42.156Z,720
2016-02-07T07:58:42.158Z,740
2016-02-07T07:59:42.161Z,740
2016-02-07T08:00:42.149Z,728
2016-02-07T08:01:42.136Z,724
2016-02-07T08:02:42.139Z,736
2016-02-07T08:03:42.126Z,756
2016-02-07T08:04:42.144Z,772
2016-02-07T08:05:42.131Z,784
2016-02-07T08:06:42.120Z,800
2016-02-07T08:07:42.122Z,812
2016-02-07T08:08:42.155Z,808
2016-02-07T08:09:42.111Z,820
2016-02-07T08:10:42.098Z,824
2016-02-07T08:11:42.117Z,812
2016-02-07T08:12:42.136Z,796
2016-02-07T08:13:42.091Z,804
2016-02-07T08:14:42.082Z,828
2016-02-07T08:15:42.087Z,868
2016-02-07T08:16:42.089Z,904
2016-02-07T08:17:42.077Z,936
2016-02-07T08:18:42.063Z,956
2016-02-07T08:19:42.084Z,964
2016-02-07T08:20:42.102Z,968
2016-02-07T08:21:42.058Z,976
2016-02-07T08:22:42.045Z,984
2016-02-07T08:23:42.063Z,996
2016-02-07T08:24:42.050Z,1012
2016-02-07T08:25:42.054Z,1024
2016-02-07T08:26:42.056Z,1024
2016-02-07T08:27:42.046Z,1012
2016-02-07T08:28:42.033Z,1000
2016-02-07T08:29:42.020Z,992
2016-02-07T08:30:42.022Z,988
2016-02-07T08:31:42.057Z,984
2016-02-07T08:32:41.998Z,972
2016-02-07T08:33:42.001Z,940
2016-02-07T08:34:42.034Z,908
2016-02-07T08:35:42.007Z,900
2016-02-07T08:36:41.994Z,920
2016-02-07T08:37:42.013Z,936
2016-02-07T08:38:42.030Z,932
2016-02-07T08:39:41.971Z,928
2016-02-07T08:40:41.960Z,920
2016-02-07T08:41:41.980Z,932
2016-02-07T08:42:42.013Z,932
2016-02-07T08:43:41.952Z,916
2016-02-07T08:44:41.971Z,896
2016-02-07T08:45:41.978Z,868
2016-02-07T08:46:41.969Z,884
2016-02-07T08:47:41.941Z,940
2016-02-07T08:48:41.943Z,968
2016-02-07T08:49:41.946Z,964
2016-02-07T08:50:41.949Z,980
2016-02-07T08:51:41.951Z,1032
2016-02-07T08:52:41.954Z,1084
2016-02-07T08:53:41.911Z,1108
2016-02-07T08:54:41.913Z,1104
2016-02-07T08:55:41.916Z,1108
2016-02-07T08:56:41.939Z,1108
2016-02-07T08:57:41.909Z,1092
2016-02-07T08:58:41.912Z,1056
2016-02-07T08:59:41.899Z,1016
2016-02-07T09:00:41.933Z,984
2016-02-07T09:01:41.887Z,1000
2016-02-07T09:02:41.890Z,1044
2016-02-07T09:03:41.878Z,1100
2016-02-07T09:04:41.896Z,1168
2016-02-07T09:05:41.883Z,1252
2016-02-07T09:06:41.870Z,1340
2016-02-07T09:07:41.872Z,1404
2016-02-07T09:08:41.859Z,1448
2016-02-07T09:09:41.861Z,1480
2016-02-07T09:10:41.865Z,1500
2016-02-07T09:11:41.867Z,1520
2016-02-07T09:12:41.839Z,1540
2016-02-07T09:13:41.857Z,1564
2016-02-07T09:14:41.847Z,1584
2016-02-07T09:15:41.834Z,1620
2016-02-07T09:16:41.837Z,1664
2016-02-07T09:17:42.279Z,1692
2016-02-07T09:18:41.844Z,1696
2016-02-07T09:19:41.815Z,1692
2016-02-07T09:20:41.824Z,1700
2016-02-07T09:21:41.826Z,1708
2016-02-07T09:22:41.815Z,1716
2016-02-07T09:23:41.802Z,1720
2016-02-07T09:24:41.805Z,1716
2016-02-07T09:25:41.823Z,1716
2016-02-07T09:26:41.795Z,1728
2016-02-07T09:27:41.801Z,1732
2016-02-07T09:28:41.788Z,1720
2016-02-07T09:29:41.807Z,1700
2016-02-07T09:30:41.778Z,1692
2016-02-07T09:31:41.765Z,1712
2016-02-07T09:32:41.784Z,1752
2016-02-07T09:33:41.618Z,1780
2016-02-07T09:34:41.777Z,1808
2016-02-07T09:35:41.737Z,1824
2016-02-07T09:36:41.740Z,1828
2016-02-07T09:37:41.742Z,1840
2016-02-07T09:38:41.728Z,1848
2016-02-07T09:39:41.747Z,1860
2016-02-07T09:40:41.735Z,1868
2016-02-07T09:41:41.722Z,1888
2016-02-07T09:42:41.739Z,1928
2016-02-07T09:43:41.728Z,1968
2016-02-07T09:44:41.870Z,2004
2016-02-07T09:45:41.734Z,2016
2016-02-07T09:46:41.704Z,2012
2016-02-07T09:47:41.707Z,2004
2016-02-07T09:48:41.697Z,1996
2016-02-07T09:49:41.701Z,2004
2016-02-07T09:50:41.703Z,2024
2016-02-07T09:51:41.690Z,2044
2016-02-07T09:52:41.692Z,2048
2016-02-07T09:53:41.695Z,2060
2016-02-07T09:54:41.681Z,2088
2016-02-07T09:55:41.684Z,2140
2016-02-07T09:56:41.704Z,2168
2016-02-07T09:57:41.676Z,2184
2016-02-07T09:58:41.679Z,2180
2016-02-07T09:59:41.697Z,2148
2016-02-07T10:00:41.684Z,2112
2016-02-07T10:01:41.655Z,2064
2016-02-07T10:02:41.660Z,2004
2016-02-07T10:03:41.646Z,1932
2016-02-07T10:04:41.666Z,1876
2016-02-07T10:05:41.637Z,1836
2016-02-07T10:06:41.655Z,1808
2016-02-07T10:07:41.673Z,1792
2016-02-07T10:08:41.629Z,1784
2016-02-07T10:09:41.663Z,1780
2016-02-07T10:10:41.636Z,1788
2016-02-07T10:11:41.638Z,1816
2016-02-07T10:12:41.641Z,1860
2016-02-07T10:13:41.611Z,1908
2016-02-07T10:14:41.615Z,1964
2016-02-07T10:15:41.602Z,2016
2016-02-07T10:16:41.605Z,2080
2016-02-07T10:17:41.607Z,2132
2016-02-07T10:18:41.596Z,2164
2016-02-07T10:19:41.590Z,2172
2016-02-07T10:20:41.610Z,2184
2016-02-07T10:21:41.644Z,2208
2016-02-07T10:22:41.599Z,2240
2016-02-07T10:23:41.574Z,2284
2016-02-07T10:24:41.608Z,2316
2016-02-07T10:25:41.580Z,2344
2016-02-07T10:26:41.567Z,2360
2016-02-07T10:27:41.585Z,2376
2016-02-07T10:28:41.573Z,2412
2016-02-07T10:29:41.561Z,2484
2016-02-07T10:30:41.563Z,2568
2016-02-07T10:31:41.582Z,2636
2016-02-07T10:32:41.554Z,2660
2016-02-07T10:33:41.540Z,2696
2016-02-07T10:34:41.544Z,2780
2016-02-07T10:35:41.546Z,2868
2016-02-07T10:36:41.549Z,2936
2016-02-07T10:37:41.537Z,2968
2016-02-07T10:38:41.525Z,2996
2016-02-07T10:39:41.515Z,3016
2016-02-07T10:40:41.550Z,3008
2016-02-07T10:41:41.583Z,2964
2016-02-07T10:42:41.522Z,2932
2016-02-07T10:43:41.511Z,2896
2016-02-07T10:44:41.514Z,2808
2016-02-07T10:45:41.532Z,2720
2016-02-07T10:46:41.520Z,2696
2016-02-07T10:47:41.506Z,2720
2016-02-07T10:48:41.509Z,2764
2016-02-07T10:49:41.512Z,2808
2016-02-07T10:50:41.486Z,2880
2016-02-07T10:51:41.489Z,2952
2016-02-07T10:52:41.510Z,2996
2016-02-07T10:53:41.497Z,3012
2016-02-07T10:54:41.484Z,3028
2016-02-07T10:55:41.503Z,3016
2016-02-07T10:56:41.505Z,2996
2016-02-07T10:57:41.477Z,2988
2016-02-07T10:58:41.495Z,3004
2016-02-07T10:59:41.483Z,3044
2016-02-07T11:00:41.517Z,3080
2016-02-07T11:01:41.473Z,3128
2016-02-07T11:02:41.475Z,3152
2016-02-07T11:03:41.462Z,3184
2016-02-07T11:04:41.465Z,3184
2016-02-07T11:05:41.469Z,3188
2016-02-07T11:06:41.440Z,3200
2016-02-07T11:07:41.459Z,3244
2016-02-07T11:08:41.445Z,3300
2016-02-07T11:09:41.454Z,3356
2016-02-07T11:10:41.413Z,3336
2016-02-07T11:11:41.419Z,3288
2016-02-07T11:12:41.392Z,3240
2016-02-07T11:13:41.368Z,3216
2016-02-07T11:14:41.381Z,3168
2016-02-07T11:15:41.364Z,3068
2016-02-07T11:16:41.362Z,2940
2016-02-07T11:17:41.328Z,2844
2016-02-07T11:18:41.329Z,2776
2016-02-07T11:19:41.346Z,2720
2016-02-07T11:20:41.350Z,2684
2016-02-07T11:21:41.321Z,2636
2016-02-07T11:22:41.306Z,2580
2016-02-07T11:23:41.308Z,2536
2016-02-07T11:24:41.325Z,2512
2016-02-07T11:25:41.295Z,2484
2016-02-07T11:26:41.298Z,2464
2016-02-07T11:27:41.300Z,2472
2016-02-07T11:28:41.317Z,2504
2016-02-07T11:29:41.289Z,2548
2016-02-07T11:30:41.307Z,2592
2016-02-07T11:31:41.278Z,2620
2016-02-07T11:32:41.280Z,2632
2016-02-07T11:33:41.282Z,2636
2016-02-07T11:34:41.270Z,2628
2016-02-07T11:35:41.289Z,2616
2016-02-07T11:36:41.260Z,2600
2016-02-07T11:37:41.278Z,2580
2016-02-07T11:38:41.280Z,2552
2016-02-07T11:39:41.285Z,2528
2016-02-07T11:40:41.273Z,2496
2016-02-07T11:41:41.259Z,2476
2016-02-07T11:42:41.262Z,2436
2016-02-07T11:43:41.250Z,2392
2016-02-07T11:44:41.252Z,2356
2016-02-07T11:45:41.240Z,2332
2016-02-07T11:46:41.242Z,2328
2016-02-07T11:47:41.261Z,2344
2016-02-07T11:48:41.247Z,2364
2016-02-07T11:49:41.234Z,2408
2016-02-07T11:50:41.237Z,2456
2016-02-07T11:51:41.225Z,2484
2016-02-07T11:52:41.228Z,2492
2016-02-07T11:53:41.232Z,2484
2016-02-07T11:54:41.250Z,2480
2016-02-07T11:55:41.221Z,2464
2016-02-07T11:56:41.224Z,2460
2016-02-07T11:57:41.226Z,2464
2016-02-07T11:58:41.245Z,2452
2016-02-07T11:59:41.202Z,2468
2016-02-07T12:00:41.204Z,2496
2016-02-07T12:01:41.207Z,2544
2016-02-07T12:02:41.241Z,2588
2016-02-07T12:03:41.196Z,2600
2016-02-07T12:04:41.200Z,2580
2016-02-07T12:05:41.218Z,2540
2016-02-07T12:06:41.194Z,2520
2016-02-07T12:07:41.196Z,2548
2016-02-07T12:08:41.200Z,2608
2016-02-07T12:09:41.202Z,2676
2016-02-07T12:10:41.189Z,2732
2016-02-07T12:11:41.176Z,2784
2016-02-07T12:12:41.179Z,2824
2016-02-07T12:13:41.198Z,2840
2016-02-07T12:14:41.170Z,2848
2016-02-07T12:15:41.172Z,2860
2016-02-07T12:16:41.175Z,2896
2016-02-07T12:17:41.162Z,2956
2016-02-07T12:18:41.150Z,3020
2016-02-07T12:19:41.152Z,3088
2016-02-07T12:20:41.170Z,3144
2016-02-07T12:21:41.188Z,3184
2016-02-07T12:22:41.145Z,3192
2016-02-07T12:23:41.159Z,3196
2016-02-07T12:24:41.179Z,3200
2016-02-07T12:25:41.166Z,3200
2016-02-07T12:26:41.154Z,3212
2016-02-07T12:27:41.141Z,3280
2016-02-07T12:28:41.144Z,3416
2016-02-07T12:29:41.147Z,3604
2016-02-07T12:30:41.165Z,3764
2016-02-07T12:31:41.136Z,3912
2016-02-07T12:32:41.140Z,4032
2016-02-07T12:33:41.128Z,4120
2016-02-07T12:34:41.146Z,4208
2016-02-07T12:35:41.120Z,4284
2016-02-07T12:36:41.106Z,4360
2016-02-07T12:37:41.126Z,4440
2016-02-07T12:38:41.128Z,4388
2016-02-07T12:39:41.115Z,4344
2016-02-07T12:40:41.103Z,4300
2016-02-07T12:41:41.121Z,4276
2016-02-07T12:42:41.109Z,4228
2016-02-07T12:43:41.126Z,4160
2016-02-07T12:44:41.082Z,4116
2016-02-07T12:45:41.101Z,4072
2016-02-07T12:46:41.104Z,4024
2016-02-07T12:47:41.106Z,3936
2016-02-07T12:48:41.094Z,3812
2016-02-07T12:49:41.096Z,3808
2016-02-07T12:50:41.132Z,3808
2016-02-07T12:51:41.087Z,3772
2016-02-07T12:52:41.121Z,3736
2016-02-07T12:53:41.078Z,3804
2016-02-07T12:54:41.083Z,3700
2016-02-07T12:55:41.101Z,3596
2016-02-07T12:56:41.075Z,3560
2016-02-07T12:57:41.077Z,3584
2016-02-07T12:58:41.080Z,3580
2016-02-07T12:59:41.067Z,3580
2016-02-07T13:00:41.070Z,3548
2016-02-07T13:01:41.089Z,3512
2016-02-07T13:02:41.077Z,3484
2016-02-07T13:03:41.049Z,3424
2016-02-07T13:04:41.051Z,3352
2016-02-07T13:05:41.069Z,3272
2016-02-07T13:06:41.071Z,3172
2016-02-07T13:07:41.074Z,3104
2016-02-07T13:08:41.046Z,3056
2016-02-07T13:09:41.048Z,3028
2016-02-07T13:10:41.051Z,3000
2016-02-07T13:11:41.085Z,3008
2016-02-07T13:12:41.040Z,3020
2016-02-07T13:13:41.043Z,3048
2016-02-07T13:14:41.046Z,3100
2016-02-07T13:15:41.065Z,3148
2016-02-07T13:16:41.036Z,3232
2016-02-07T13:17:41.039Z,3304
2016-02-07T13:18:41.057Z,3436
2016-02-07T13:19:41.060Z,3436
2016-02-07T13:20:41.062Z,3456
2016-02-07T13:21:41.018Z,3484
2016-02-07T13:22:41.021Z,3564
2016-02-07T13:23:41.027Z,3624
2016-02-07T13:24:41.046Z,3764
2016-02-07T13:25:41.018Z,3824
2016-02-07T13:26:41.021Z,3956
2016-02-07T13:27:41.432Z,4040
2016-02-07T13:28:41.010Z,4064
2016-02-07T13:29:41.028Z,4084
2016-02-07T13:30:41.015Z,4080
2016-02-07T13:31:41.018Z,4064
2016-02-07T13:32:41.004Z,4124
2016-02-07T13:33:41.007Z,4012
2016-02-07T13:34:41.010Z,4176
2016-02-07T13:35:41.045Z,4004
2016-02-07T13:36:41.005Z,3864
2016-02-07T13:37:41.023Z,3652
2016-02-07T13:38:41.010Z,3448
2016-02-07T13:39:41.028Z,3400
2016-02-07T13:40:40.984Z,3124
2016-02-07T13:41:41.003Z,3060
2016-02-07T13:42:40.989Z,3072
2016-02-07T13:43:41.008Z,2748
2016-02-07T13:44:40.981Z,2428
2016-02-07T13:45:40.826Z,2272
2016-02-07T13:46:40.986Z,2208
2016-02-07T13:47:41.004Z,2104
2016-02-07T13:48:40.975Z,2044
2016-02-07T13:49:40.964Z,2064
2016-02-07T13:50:40.967Z,2136
2016-02-07T13:51:41.001Z,2164
2016-02-07T13:52:40.972Z,2220
2016-02-07T13:53:40.975Z,2292
2016-02-07T13:54:40.964Z,2292
2016-02-07T13:55:40.982Z,2320
2016-02-07T13:56:40.969Z,2384
2016-02-07T13:57:40.960Z,2408
2016-02-07T13:58:40.979Z,2408
2016-02-07T13:59:40.810Z,2424
2016-02-07T14:00:40.953Z,2484
2016-02-07T14:01:40.955Z,2564
2016-02-07T14:02:40.990Z,2688